ENCN/KRS METAR and TAF weather

Enter ICAO airport designator
Station Type Date Time Source
ENCN METAR 2020/07/09 23:50 UTC NOAA

ENCN 092350Z AUTO 05004KT 9999 NCD 08/06 Q1009


Station Type Date Time Source
ENCN Decoded METAR 2020/07/09 23:50 UTC NOAA

Kristiansand / Kjevik, Norway (ENCN) 58-12N 008-05E 17M
Jul 09, 2020 - 07:50 PM EDT / 2020.07.09 2350 UTC
Wind: from the NE (050 degrees) at 5 MPH (4 KT):0
Visibility: greater than 7 mile(s):0
Temperature: 46 F (8 C)
Dew Point: 42 F (6 C)
Relative Humidity: 87%
Pressure (altimeter): 29.80 in. Hg (1009 hPa)
ob: ENCN 092350Z AUTO 05004KT 9999 NCD 08/06 Q1009
cycle: 0

Station Type Date Time Source
ENCN TAF 2016/05/06 12:39 UTC NOAA

TAF TAF ENCN 061100Z 0612/0712 14008KT 9999 FEW040

Example: see airport list